Time;durP1;ratioP1;P1;durP2;ratioP2;P2;SDS_P1;SDS_P2;PMS_P1;PMS_P2;Temp;Humidity;BMP_temperature;BMP_pressure;BME280_temperature;BME280_humidity;BME280_pressure;Samples;Min_cycle;Max_cycle;Signal;HPM_P1;HPM_P2
2022/10/13 00:00:23;;;;;;;37.58;17.45;;;;;;;16.57;100.00;95068.38;5066169;28;20032;-90
2022/10/13 00:02:48;;;;;;;49.90;22.75;;;;;;;16.75;100.00;95065.97;5096273;28;20031;-90
2022/10/13 00:05:14;;;;;;;52.55;23.40;;;;;;;16.86;100.00;95056.00;5083689;28;20068;-90
2022/10/13 00:07:52;;;;;;;45.35;22.33;;;;;;;16.94;100.00;95061.41;5089318;28;20089;-90
2022/10/13 00:10:17;;;;;;;48.83;23.75;;;;;;;16.51;100.00;95062.38;5061048;28;20457;-90
2022/10/13 00:12:43;;;;;;;50.97;24.63;;;;;;;16.63;100.00;95061.91;5077583;28;20036;-90
2022/10/13 00:15:09;;;;;;;52.55;22.42;;;;;;;16.71;100.00;95057.84;5078394;28;20032;-90
2022/10/13 00:17:38;;;;;;;48.20;23.67;;;;;;;16.78;100.00;95068.03;5077217;28;20472;-90
2022/10/13 00:20:04;;;;;;;50.80;22.77;;;;;;;16.94;100.00;95060.66;5077219;28;20078;-90
2022/10/13 00:22:37;;;;;;;51.58;23.17;;;;;;;16.92;100.00;95062.78;5077147;28;20039;-90
2022/10/13 00:25:06;;;;;;;53.27;25.00;;;;;;;16.77;100.00;95056.66;5078648;28;20031;-91
2022/10/13 00:27:39;;;;;;;49.08;25.25;;;;;;;16.85;100.00;95062.38;5094411;28;20275;-90
2022/10/13 00:30:05;;;;;;;57.45;26.88;;;;;;;16.52;100.00;95061.28;5077035;28;20037;-90
2022/10/13 00:32:33;;;;;;;58.78;26.27;;;;;;;16.72;100.00;95055.97;5077086;28;20122;-91
2022/10/13 00:35:01;;;;;;;52.58;26.38;;;;;;;16.80;100.00;95064.03;5060418;28;20055;-91
2022/10/13 00:37:26;;;;;;;49.45;25.25;;;;;;;16.75;100.00;95058.81;5060540;28;20036;-92
2022/10/13 00:39:52;;;;;;;50.13;25.63;;;;;;;16.71;100.00;95062.31;5077031;28;20020;-91
2022/10/13 00:42:22;;;;;;;47.10;24.38;;;;;;;16.77;100.00;95064.59;5077014;28;20036;-90
2022/10/13 00:45:14;;;;;;;49.97;25.45;;;;;;;16.96;100.00;95069.09;5077013;28;20036;-90
2022/10/13 00:47:43;;;;;;;53.88;24.02;;;;;;;16.88;100.00;95067.09;5077826;28;20039;-92
2022/10/13 00:50:13;;;;;;;46.92;23.70;;;;;;;16.85;100.00;95067.69;5076377;28;20449;-90
2022/10/13 00:52:40;;;;;;;49.42;25.10;;;;;;;16.85;100.00;95065.03;5076485;28;20036;-90
2022/10/13 00:55:07;;;;;;;52.63;24.10;;;;;;;16.86;100.00;95058.66;5060016;28;20028;-90
2022/10/13 00:57:32;;;;;;;54.10;24.83;;;;;;;16.81;100.00;95056.88;5059581;28;20037;-89
2022/10/13 00:59:58;;;;;;;42.00;23.42;;;;;;;16.88;100.00;95054.66;5076577;28;20330;-90
2022/10/13 01:02:27;;;;;;;48.88;22.98;;;;;;;16.92;100.00;95053.00;5076248;28;20433;-91
2022/10/13 01:04:53;;;;;;;46.72;22.73;;;;;;;16.94;100.00;95047.41;5093516;28;20032;-90
2022/10/13 01:07:19;;;;;;;49.13;23.20;;;;;;;16.91;100.00;95050.63;5076434;28;20047;-92
2022/10/13 01:09:46;;;;;;;41.42;21.83;;;;;;;17.04;100.00;95051.78;5059892;28;20028;-90
2022/10/13 01:12:26;;;;;;;51.05;23.02;;;;;;;17.03;100.00;95043.03;5076135;28;20426;-90
2022/10/13 01:14:56;;;;;;;49.67;23.95;;;;;;;17.00;100.00;95043.63;5077611;28;20043;-91
2022/10/13 01:18:06;;;;;;;48.92;22.90;;;;;;;17.16;100.00;95053.94;5076586;28;20468;-91
2022/10/13 01:20:47;;;;;;;43.22;21.23;;;;;;;17.07;100.00;95040.59;5076141;28;20051;-91
2022/10/13 01:23:24;;;;;;;52.65;22.35;;;;;;;17.07;100.00;95038.75;5077060;28;20036;-91
2022/10/13 01:26:11;;;;;;;53.65;22.85;;;;;;;16.95;100.00;95041.03;5076166;28;20043;-89
2022/10/13 01:28:52;;;;;;;49.55;24.00;;;;;;;16.89;100.00;95037.69;5075991;28;20036;-90
2022/10/13 01:31:27;;;;;;;50.03;25.00;;;;;;;16.75;100.00;95035.00;5077055;28;20036;-91
2022/10/13 01:34:02;;;;;;;42.97;22.38;;;;;;;16.84;100.00;95044.94;5076002;28;20036;-90
2022/10/13 01:36:47;;;;;;;45.08;24.08;;;;;;;16.80;100.00;95027.00;5075783;28;20029;-91
2022/10/13 01:39:35;;;;;;;55.90;24.48;;;;;;;16.85;100.00;95022.69;5075949;28;20336;-91
2022/10/13 01:42:15;;;;;;;47.50;23.02;;;;;;;16.86;100.00;95022.41;5059655;28;20025;-91
2022/10/13 01:44:47;;;;;;;52.88;24.85;;;;;;;16.72;100.00;95021.59;5060164;28;20039;-91
2022/10/13 01:47:14;;;;;;;53.95;27.05;;;;;;;16.62;100.00;95023.31;5075999;28;20062;-91
2022/10/13 01:49:41;;;;;;;61.55;27.00;;;;;;;16.66;100.00;95020.88;5075736;28;20322;-90
2022/10/13 01:52:09;;;;;;;55.85;26.58;;;;;;;16.74;100.00;95024.72;5059328;28;20111;-91
2022/10/13 01:54:35;;;;;;;59.92;26.70;;;;;;;16.58;100.00;95017.03;5075500;28;20029;-91
2022/10/13 01:57:03;;;;;;;60.03;27.13;;;;;;;16.39;100.00;95020.47;5058960;28;20039;-91
2022/10/13 01:59:39;;;;;;;59.58;26.77;;;;;;;16.52;100.00;95018.97;5075637;28;20036;-90
2022/10/13 02:02:34;;;;;;;52.40;26.52;;;;;;;16.54;100.00;95024.75;5075939;28;20032;-90
2022/10/13 02:05:32;;;;;;;50.72;26.63;;;;;;;16.58;100.00;95026.81;5075922;28;20345;-91
2022/10/13 02:08:10;;;;;;;58.97;28.17;;;;;;;16.55;100.00;95025.53;5075955;28;20028;-90
2022/10/13 02:11:07;;;;;;;51.85;26.83;;;;;;;15.23;100.00;95010.06;5075277;28;20046;-90
2022/10/13 02:13:34;;;;;;;58.90;27.40;;;;;;;15.09;100.00;95009.94;5080253;28;20051;-91
2022/10/13 02:16:02;;;;;;;53.08;27.58;;;;;;;15.09;100.00;95005.47;5075630;28;20037;-90
2022/10/13 02:18:33;;;;;;;58.15;27.00;;;;;;;15.16;100.00;95005.13;5059795;28;20032;-90
2022/10/13 02:21:02;;;;;;;59.95;27.27;;;;;;;15.11;100.00;95002.53;5079355;28;20491;-91
2022/10/13 02:23:28;;;;;;;51.92;25.13;;;;;;;15.13;100.00;95003.03;5079592;28;20029;-90
2022/10/13 02:25:57;;;;;;;53.67;27.00;;;;;;;15.02;100.00;94997.06;5062917;28;20039;-90
2022/10/13 02:28:26;;;;;;;50.65;25.38;;;;;;;15.01;100.00;95000.78;5079278;28;20392;-91
2022/10/13 02:30:51;;;;;;;53.00;26.45;;;;;;;15.00;100.00;94996.56;5079466;28;20059;-90
2022/10/13 02:33:16;;;;;;;65.75;26.55;;;;;;;14.96;100.00;94996.34;5062978;28;20021;-90
2022/10/13 02:35:42;;;;;;;56.75;25.50;;;;;;;15.02;100.00;94994.44;5062696;28;20024;-90
2022/10/13 02:38:08;;;;;;;53.95;25.75;;;;;;;14.93;100.00;94993.47;5079083;28;20428;-91
2022/10/13 02:40:33;;;;;;;53.13;26.17;;;;;;;14.74;100.00;94991.53;5080492;28;20059;-90
2022/10/13 02:43:01;;;;;;;47.67;24.60;;;;;;;14.79;100.00;94982.78;5079025;28;20031;-92
2022/10/13 02:45:27;;;;;;;50.55;25.52;;;;;;;14.84;100.00;94983.53;5079209;28;20426;-91
2022/10/13 02:48:09;;;;;;;55.00;28.20;;;;;;;15.04;100.00;94988.88;5079410;28;20061;-90
2022/10/13 02:50:35;;;;;;;60.78;28.45;;;;;;;15.05;100.00;94983.31;5095642;28;20028;-90
2022/10/13 02:53:02;;;;;;;59.67;27.92;;;;;;;15.00;100.00;94983.38;5062362;28;20031;-91
2022/10/13 02:55:33;;;;;;;56.85;26.48;;;;;;;14.99;100.00;94976.53;5078954;28;20071;-91
2022/10/13 02:57:58;;;;;;;62.25;27.00;;;;;;;14.80;100.00;94974.59;5078664;28;20430;-92
2022/10/13 03:00:24;;;;;;;51.78;27.25;;;;;;;14.64;100.00;94978.44;5095726;28;20062;-91
2022/10/13 03:02:49;;;;;;;53.63;28.00;;;;;;;14.28;100.00;94977.66;5078617;28;20395;-91
2022/10/13 03:05:18;;;;;;;55.65;28.25;;;;;;;14.31;100.00;94978.94;5062409;28;20029;-91
2022/10/13 03:08:16;;;;;;;59.65;29.92;;;;;;;14.36;100.00;94978.13;5079509;28;20456;-91
2022/10/13 03:10:42;;;;;;;59.83;26.75;;;;;;;14.30;100.00;94976.56;5078809;28;20040;-91
2022/10/13 03:13:07;;;;;;;64.55;29.10;;;;;;;14.31;100.00;94978.94;5078859;28;20024;-91
2022/10/13 03:15:33;;;;;;;63.20;28.45;;;;;;;14.28;100.00;94988.19;5062243;28;20028;-91
2022/10/13 03:17:58;;;;;;;63.90;29.15;;;;;;;14.31;100.00;94980.78;5078630;28;20028;-91
2022/10/13 03:20:30;;;;;;;58.92;29.15;;;;;;;14.37;100.00;94983.09;5079540;28;20448;-91
2022/10/13 03:23:13;;;;;;;;;;;;;;;;;;;;;
2022/10/13 03:25:40;;;;;;;77.35;31.15;;;;;;;14.20;100.00;94986.16;5098642;28;20344;-91
2022/10/13 03:28:13;;;;;;;58.65;28.55;;;;;;;14.28;100.00;94980.28;5079337;28;20040;-93
2022/10/13 03:30:39;;;;;;;57.90;29.02;;;;;;;14.35;100.00;94990.50;5077149;28;20117;-95
2022/10/13 03:33:04;;;;;;;59.83;27.73;;;;;;;14.35;100.00;94976.56;5078300;28;20036;-94
2022/10/13 03:35:30;;;;;;;61.20;28.55;;;;;;;14.40;100.00;94979.91;5061731;28;20028;-94
2022/10/13 03:38:02;;;;;;;57.13;26.85;;;;;;;14.34;100.00;94975.75;5061892;28;20039;-95
2022/10/13 03:40:28;;;;;;;60.83;29.90;;;;;;;14.29;100.00;94978.44;5062803;28;20062;-94
2022/10/13 03:42:53;;;;;;;56.15;26.95;;;;;;;14.44;100.00;94966.97;5061799;28;20029;-93
2022/10/13 03:45:19;;;;;;;58.80;27.42;;;;;;;14.30;100.00;94966.84;5070939;28;20119;-94
2022/10/13 03:47:45;;;;;;;54.85;27.17;;;;;;;14.24;100.00;94968.72;5081858;28;20030;-93
2022/10/13 03:50:11;;;;;;;55.70;28.45;;;;;;;14.10;100.00;94965.13;5081339;28;20020;-93
2022/10/13 03:52:36;;;;;;;58.38;26.80;;;;;;;14.00;100.00;94976.53;5081737;28;20027;-94
2022/10/13 03:55:02;;;;;;;57.20;24.85;;;;;;;13.89;100.00;94969.75;5098269;28;20062;-93
2022/10/13 03:57:27;;;;;;;56.40;25.27;;;;;;;13.82;100.00;94983.22;5081221;28;20036;-93
2022/10/13 04:00:09;;;;;;;49.65;23.80;;;;;;;13.88;100.00;94981.34;4143300;22;20275;-92
2022/10/13 04:02:35;;;;;;;66.97;30.73;;;;;;;13.55;100.00;94984.41;5077724;28;20048;-92
2022/10/13 04:05:00;;;;;;;73.15;32.50;;;;;;;13.36;100.00;94982.34;5060972;28;20043;-92
2022/10/13 04:07:26;;;;;;;72.38;32.30;;;;;;;13.43;100.00;94982.88;5061195;28;20059;-93
2022/10/13 04:09:57;;;;;;;68.28;31.13;;;;;;;13.38;100.00;94984.69;5060896;28;20075;-92
2022/10/13 04:12:23;;;;;;;60.03;29.13;;;;;;;13.48;100.00;94983.91;5070739;28;20028;-92
2022/10/13 04:14:58;;;;;;;54.75;28.48;;;;;;;13.37;100.00;94989.19;5077584;28;20044;-92
2022/10/13 04:17:23;;;;;;;55.40;28.80;;;;;;;13.48;100.00;94989.16;5077203;28;20024;-92
2022/10/13 04:19:49;;;;;;;65.32;28.58;;;;;;;13.13;100.00;94987.16;5077492;28;20070;-91
2022/10/13 04:22:14;;;;;;;53.35;27.17;;;;;;;13.20;100.00;94978.97;5076990;28;20020;-92
2022/10/13 04:24:40;;;;;;;57.97;26.17;;;;;;;13.36;100.00;94982.34;5077179;28;20024;-92
2022/10/13 04:27:05;;;;;;;57.55;28.55;;;;;;;13.27;100.00;94978.69;5077266;28;20058;-92
2022/10/13 04:29:31;;;;;;;59.38;28.58;;;;;;;13.12;100.00;94980.31;5077110;28;20046;-92
2022/10/13 04:31:58;;;;;;;61.03;27.52;;;;;;;13.09;100.00;94978.22;5076431;28;20025;-92
2022/10/13 04:34:23;;;;;;;57.20;28.77;;;;;;;12.87;100.00;94976.69;5094017;28;20455;-91
2022/10/13 04:36:50;;;;;;;72.00;30.08;;;;;;;12.87;100.00;94971.44;5093919;28;20024;-92
2022/10/13 04:39:17;;;;;;;76.07;32.33;;;;;;;12.94;100.00;94965.13;5077348;28;20119;-91
2022/10/13 04:41:42;;;;;;;64.72;31.08;;;;;;;13.08;100.00;94975.84;5076408;28;20028;-91
2022/10/13 04:44:08;;;;;;;71.00;31.35;;;;;;;12.87;100.00;94971.44;5093451;28;20425;-92
2022/10/13 04:46:33;;;;;;;69.30;32.15;;;;;;;12.67;100.00;94963.59;5093758;28;20057;-91
2022/10/13 04:49:01;;;;;;;86.57;36.10;;;;;;;12.68;100.00;94962.53;5085626;28;20028;-91
2022/10/13 04:51:29;;;;;;;98.07;36.45;;;;;;;12.79;100.00;94963.31;5078565;28;20141;-92
2022/10/13 04:53:56;;;;;;;81.78;34.65;;;;;;;12.76;100.00;94964.63;5093538;28;20024;-92
2022/10/13 04:56:22;;;;;;;63.92;30.00;;;;;;;13.02;100.00;94975.09;5079836;28;20024;-93
2022/10/13 04:58:50;;;;;;;87.68;35.17;;;;;;;12.99;100.00;94973.00;5096869;28;20016;-94
2022/10/13 05:01:19;;;;;;;71.95;34.28;;;;;;;13.19;100.00;94977.41;5080013;28;20024;-94
2022/10/13 05:03:44;;;;;;;72.20;33.95;;;;;;;13.27;100.00;94973.44;5114088;28;20115;-93
2022/10/13 05:06:24;;;;;;;73.72;33.38;;;;;;;13.08;100.00;94974.03;5079947;28;20502;-93
2022/10/13 05:08:50;;;;;;;73.55;32.28;;;;;;;13.24;100.00;94971.34;5097049;28;20024;-93
2022/10/13 05:11:18;;;;;;;61.38;31.77;;;;;;;13.33;100.00;94974.97;5113817;28;20023;-92
2022/10/13 05:13:45;;;;;;;69.50;31.95;;;;;;;13.34;100.00;94979.22;5080218;28;20027;-93
2022/10/13 05:16:16;;;;;;;65.13;31.25;;;;;;;13.34;100.00;94973.94;5114275;28;20107;-94
2022/10/13 05:18:42;;;;;;;77.18;32.38;;;;;;;13.31;100.00;94974.47;5097236;28;20173;-93
2022/10/13 05:21:16;;;;;;;68.00;31.17;;;;;;;13.53;100.00;94978.63;5097095;28;20110;-93
2022/10/13 05:23:42;;;;;;;71.30;30.17;;;;;;;13.45;100.00;94974.72;5080100;28;20032;-93
2022/10/13 05:26:10;;;;;;;67.05;27.85;;;;;;;13.49;100.00;94969.72;5096716;28;20028;-93
2022/10/13 05:28:36;;;;;;;49.35;27.33;;;;;;;13.41;100.00;94966.53;5113193;28;20024;-93
2022/10/13 05:31:13;;;;;;;51.05;26.35;;;;;;;13.35;100.00;94977.34;5096362;28;20040;-92
2022/10/13 05:33:39;;;;;;;53.67;26.42;;;;;;;13.32;100.00;94978.66;5096560;28;20039;-93
2022/10/13 05:36:14;;;;;;;53.67;26.67;;;;;;;12.89;100.00;94968.56;5079678;28;20492;-93
2022/10/13 05:38:39;;;;;;;62.50;29.42;;;;;;;12.53;100.00;94968.59;5096769;28;20047;-92
2022/10/13 05:41:12;;;;;;;75.53;32.22;;;;;;;12.51;100.00;94974.13;5096218;28;20078;-93
2022/10/13 05:43:39;;;;;;;70.63;32.80;;;;;;;12.38;100.00;94974.66;5096218;28;20023;-93
2022/10/13 05:46:05;;;;;;;65.40;31.25;;;;;;;12.43;100.00;94970.19;5096268;28;20028;-93
2022/10/13 05:48:31;;;;;;;68.50;30.85;;;;;;;12.61;100.00;94968.06;5095937;28;20034;-92
2022/10/13 05:50:58;;;;;;;76.22;30.60;;;;;;;12.65;100.00;94966.47;5112950;28;20045;-92
2022/10/13 05:53:26;;;;;;;65.25;30.90;;;;;;;12.80;100.00;94963.06;5095798;28;20051;-93
2022/10/13 05:55:55;;;;;;;65.45;29.58;;;;;;;12.70;100.00;94966.50;5113196;28;20028;-93
2022/10/13 05:58:21;;;;;;;54.83;27.98;;;;;;;12.84;100.00;94966.72;5096107;28;20043;-92
2022/10/13 06:00:47;;;;;;;53.20;25.83;;;;;;;12.93;100.00;94963.56;5112939;28;20028;-93
2022/10/13 06:03:15;;;;;;;69.15;28.90;;;;;;;12.92;100.00;94956.72;5095937;28;20043;-92
2022/10/13 06:05:44;;;;;;;75.88;29.42;;;;;;;12.87;100.00;94949.63;5078968;28;20130;-92
2022/10/13 06:08:09;;;;;;;63.38;28.25;;;;;;;12.61;100.00;94952.31;5112744;28;20093;-92
2022/10/13 06:10:36;;;;;;;63.75;29.05;;;;;;;12.99;100.00;94952.75;5095694;28;20032;-92
2022/10/13 06:13:01;;;;;;;60.83;28.00;;;;;;;13.22;100.00;94952.41;5112752;28;20041;-92
2022/10/13 06:15:27;;;;;;;73.85;27.73;;;;;;;13.49;100.00;94961.81;5113035;28;20036;-94
2022/10/13 06:17:52;;;;;;;65.43;23.58;;;;;;;13.77;100.00;94962.16;5079134;28;20420;-92
2022/10/13 06:20:28;;;;;;;;;;;;;;;;;;;;;
2022/10/13 06:22:57;;;;;;;62.60;24.77;;;;;;;14.17;100.00;94955.06;5095934;28;20432;-93
2022/10/13 06:25:29;;;;;;;52.10;22.70;;;;;;;13.97;100.00;94950.72;5078979;28;20395;-91
2022/10/13 06:27:56;;;;;;;53.07;21.03;;;;;;;14.31;100.00;94957.06;5095939;28;20035;-91
2022/10/13 06:30:21;;;;;;;53.83;21.55;;;;;;;14.45;100.00;94944.81;5112605;28;20286;-92
2022/10/13 06:32:47;;;;;;;38.28;19.10;;;;;;;14.42;100.00;94950.66;5096272;28;20031;-92
2022/10/13 06:35:12;;;;;;;34.25;17.15;;;;;;;14.66;100.00;94952.56;5095720;28;20065;-91
2022/10/13 06:37:38;;;;;;;36.92;19.50;;;;;;;14.63;100.00;94956.53;5078802;28;20090;-91
2022/10/13 06:40:04;;;;;;;43.47;20.15;;;;;;;14.71;100.00;94960.41;5095686;28;20036;-93
2022/10/13 06:42:30;;;;;;;53.67;21.58;;;;;;;14.71;100.00;94960.41;5095074;28;20035;-92
2022/10/13 06:44:56;;;;;;;39.25;19.65;;;;;;;14.87;100.00;94965.56;5095450;28;20034;-92
2022/10/13 06:47:22;;;;;;;36.63;18.23;;;;;;;14.98;100.00;94959.13;5095571;28;20436;-91
2022/10/13 06:49:47;;;;;;;38.08;19.25;;;;;;;15.08;100.00;94958.22;5078719;28;20046;-92
2022/10/13 06:52:13;;;;;;;40.97;19.48;;;;;;;14.83;100.00;94954.78;5078426;28;20028;-92
2022/10/13 06:54:38;;;;;;;45.75;20.15;;;;;;;14.69;100.00;94954.63;5095233;28;20352;-92
2022/10/13 06:57:07;;;;;;;42.83;18.52;;;;;;;15.03;100.00;94956.41;5095387;28;20039;-92
2022/10/13 06:59:32;;;;;;;42.53;19.67;;;;;;;14.98;100.00;94957.25;5078622;28;20067;-92
2022/10/13 07:01:58;;;;;;;32.55;17.63;;;;;;;15.16;100.00;94962.91;5094827;28;20067;-92
2022/10/13 07:04:24;;;;;;;34.75;17.00;;;;;;;15.41;100.00;94961.00;5095369;28;20413;-92
2022/10/13 07:06:50;;;;;;;35.63;16.98;;;;;;;15.60;100.00;94957.63;5098918;28;20107;-92
2022/10/13 07:09:16;;;;;;;38.92;16.75;;;;;;;15.61;100.00;94959.19;5082084;28;20186;-92
2022/10/13 07:11:45;;;;;;;33.72;16.08;;;;;;;15.86;100.00;94965.97;5081946;28;20040;-92
2022/10/13 07:14:11;;;;;;;31.98;17.63;;;;;;;15.64;100.00;94963.91;5100014;28;20028;-92
2022/10/13 07:16:36;;;;;;;33.75;17.95;;;;;;;15.54;100.00;94965.59;5100182;28;20041;-91
2022/10/13 07:19:02;;;;;;;37.95;16.77;;;;;;;15.92;100.00;94970.16;5099220;28;20024;-91
2022/10/13 07:21:27;;;;;;;38.92;14.95;;;;;;;15.98;100.00;94957.63;5098472;28;20032;-91
2022/10/13 07:23:52;;;;;;;34.97;15.25;;;;;;;16.15;100.00;94959.78;5081889;28;20032;-92
2022/10/13 07:26:18;;;;;;;35.25;16.73;;;;;;;16.21;100.00;94953.34;5098875;28;20424;-92
2022/10/13 07:28:44;;;;;;;29.25;15.95;;;;;;;16.08;100.00;94954.84;5098419;28;20450;-91
2022/10/13 07:31:14;;;;;;;30.05;16.40;;;;;;;16.31;100.00;94954.25;5098247;28;20032;-92
2022/10/13 07:33:41;;;;;;;36.03;18.08;;;;;;;16.04;100.00;94951.22;5098407;28;20023;-91
2022/10/13 07:36:07;;;;;;;36.70;17.00;;;;;;;16.30;100.00;94956.13;5081769;28;20432;-92
2022/10/13 07:38:33;;;;;;;40.47;15.90;;;;;;;16.11;100.00;94959.56;5098340;28;20360;-91
2022/10/13 07:41:01;;;;;;;35.35;16.23;;;;;;;16.13;100.00;94961.94;5098315;28;20036;-91
2022/10/13 07:43:26;;;;;;;39.53;16.45;;;;;;;16.43;100.00;94961.75;5081989;28;20034;-91
2022/10/13 07:45:52;;;;;;;36.67;16.90;;;;;;;16.34;100.00;94959.75;5098199;28;20028;-91
2022/10/13 07:48:17;;;;;;;33.67;16.40;;;;;;;16.37;100.00;94958.41;5098182;28;20028;-92
2022/10/13 07:50:42;;;;;;;32.40;16.55;;;;;;;16.60;100.00;94958.53;5097868;28;20024;-91
2022/10/13 07:53:08;;;;;;;36.40;16.15;;;;;;;16.67;100.00;94962.38;5081437;28;20032;-91
2022/10/13 07:55:33;;;;;;;29.30;15.25;;;;;;;16.71;100.00;94959.13;5097996;28;20325;-91
2022/10/13 07:58:02;;;;;;;33.70;16.80;;;;;;;16.82;100.00;94961.34;5097999;28;20035;-92
2022/10/13 08:00:28;;;;;;;29.52;16.10;;;;;;;16.78;100.00;94962.97;5097757;28;20096;-91
2022/10/13 08:02:53;;;;;;;37.47;15.45;;;;;;;16.55;100.00;94959.41;5098013;28;20034;-92
2022/10/13 08:05:19;;;;;;;26.92;15.10;;;;;;;16.88;100.00;94955.94;5081177;28;20035;-91
2022/10/13 08:07:44;;;;;;;22.77;14.15;;;;;;;16.74;100.00;94958.56;5097826;28;20417;-92
2022/10/13 08:10:10;;;;;;;29.45;14.18;;;;;;;17.02;100.00;94951.47;5080737;28;20024;-91
2022/10/13 08:12:36;;;;;;;26.20;13.00;;;;;;;17.06;100.00;94959.63;5081100;28;20176;-92
2022/10/13 08:15:02;;;;;;;33.75;15.52;;;;;;;16.69;100.00;94964.75;5097970;28;20027;-92
2022/10/13 08:17:28;;;;;;;25.95;14.45;;;;;;;16.84;100.00;94962.91;5080015;28;20031;-91
2022/10/13 08:19:54;;;;;;;27.27;13.70;;;;;;;17.03;100.00;94962.84;5097577;28;20096;-92
2022/10/13 08:22:19;;;;;;;29.42;14.45;;;;;;;16.98;100.00;94960.25;5081066;28;20028;-91
2022/10/13 08:24:45;;;;;;;25.02;13.90;;;;;;;17.18;100.00;94956.47;5080536;28;20097;-91
2022/10/13 08:27:12;;;;;;;26.70;13.95;;;;;;;16.97;100.00;94956.84;5080721;28;20132;-91
2022/10/13 08:29:37;;;;;;;25.77;11.90;;;;;;;17.05;100.00;94960.69;5097457;28;20451;-91
2022/10/13 08:32:03;;;;;;;20.05;9.82;;;;;;;17.42;100.00;94956.25;5097238;28;20028;-92
2022/10/13 08:34:28;;;;;;;22.88;11.52;;;;;;;17.58;100.00;94954.09;5097439;28;20340;-91
2022/10/13 08:36:55;;;;;;;23.13;11.00;;;;;;;17.76;100.00;94964.84;5080306;28;20038;-93
2022/10/13 08:39:27;;;;;;;26.75;12.15;;;;;;;17.77;100.00;94969.06;5080651;28;20031;-91
2022/10/13 08:41:53;;;;;;;23.83;11.55;;;;;;;17.90;100.00;94968.25;5080012;28;20115;-92
2022/10/13 08:44:34;;;;;;;24.98;11.57;;;;;;;17.78;100.00;94971.41;5080354;28;20039;-91
2022/10/13 08:47:24;;;;;;;23.60;10.80;;;;;;;18.06;100.00;94984.63;5080368;28;20028;-90
2022/10/13 08:49:50;;;;;;;24.92;11.90;;;;;;;17.70;100.00;94976.66;5068532;28;20138;-91
2022/10/13 08:52:22;;;;;;;28.13;10.60;;;;;;;18.02;100.00;94982.84;5096800;28;20484;-91
2022/10/13 08:54:48;;;;;;;36.50;13.45;;;;;;;17.76;100.00;94983.38;5096895;28;20434;-91
2022/10/13 08:57:14;;;;;;;33.67;13.00;;;;;;;17.84;100.00;94989.84;5080137;28;20055;-92
2022/10/13 08:59:39;;;;;;;28.58;12.70;;;;;;;18.02;100.00;94991.63;5097010;28;20104;-92
2022/10/13 09:02:13;;;;;;;28.65;12.98;;;;;;;18.24;100.00;94998.03;5096680;28;20042;-92
2022/10/13 09:04:42;;;;;;;26.25;12.88;;;;;;;18.31;100.00;94992.31;5079947;28;20126;-91
2022/10/13 09:07:07;;;;;;;26.58;13.95;;;;;;;18.01;100.00;94991.88;5096650;28;20050;-92
2022/10/13 09:09:33;;;;;;;23.10;12.45;;;;;;;18.19;100.00;94983.00;5097715;28;20028;-91
2022/10/13 09:11:58;;;;;;;31.23;13.23;;;;;;;18.29;100.00;94986.53;5096420;28;20028;-91
2022/10/13 09:14:35;;;;;;;32.72;14.20;;;;;;;18.53;100.00;94982.78;5079864;28;20049;-91
2022/10/13 09:17:31;;;;;;;27.05;13.02;;;;;;;18.47;100.00;94972.28;5079749;28;20039;-91
2022/10/13 09:20:00;;;;;;;27.42;12.77;;;;;;;18.56;100.00;94976.88;5087955;28;20540;-91
2022/10/13 09:22:36;;;;;;;23.75;12.20;;;;;;;18.89;100.00;94971.25;5079809;28;20059;-91
2022/10/13 09:25:09;;;;;;;24.85;12.45;;;;;;;18.65;100.00;94969.75;5096331;28;20032;-91
2022/10/13 09:27:42;;;;;;;33.95;13.10;;;;;;;18.61;100.00;94966.13;5079314;28;20032;-91
2022/10/13 09:30:38;;;;;;;24.30;12.45;;;;;;;18.59;100.00;94976.25;5096464;28;20028;-91
2022/10/13 09:33:03;;;;;;;24.27;12.70;;;;;;;18.29;100.00;94962.66;5079421;28;20024;-90
2022/10/13 09:35:31;;;;;;;25.45;13.10;;;;;;;18.32;100.00;94959.38;5096317;28;20039;-91
2022/10/13 09:38:12;;;;;;;29.38;14.52;;;;;;;18.53;100.00;94956.25;5095266;28;20356;-90
2022/10/13 09:40:39;;;;;;;27.05;12.30;;;;;;;18.97;100.00;94946.63;5079578;28;20051;-91
2022/10/13 09:43:29;;;;;;;26.10;12.52;;;;;;;19.50;100.00;94954.78;5112888;28;20046;-91
2022/10/13 09:45:55;;;;;;;25.83;12.13;;;;;;;19.76;100.00;94951.38;5092776;28;20134;-90
2022/10/13 09:48:27;;;;;;;29.23;12.85;;;;;;;19.95;100.00;94950.34;5112877;28;20036;-91
2022/10/13 09:50:54;;;;;;;24.30;12.07;;;;;;;19.83;100.00;94951.72;5113095;28;20031;-91
2022/10/13 09:53:29;;;;;;;25.60;11.85;;;;;;;20.45;94.77;94957.81;5113068;28;20106;-91
2022/10/13 09:56:09;;;;;;;28.90;12.32;;;;;;;20.16;100.00;94956.59;5096332;28;20405;-91
2022/10/13 09:58:43;;;;;;;24.75;12.52;;;;;;;20.31;93.51;94957.19;5096972;28;20486;-90
2022/10/13 10:01:18;;;;;;;28.30;12.13;;;;;;;20.75;90.73;94957.13;5083144;28;20032;-90
2022/10/13 10:03:51;;;;;;;27.20;12.95;;;;;;;19.90;100.00;94953.91;5075624;28;20032;-91
2022/10/13 10:06:17;;;;;;;22.38;11.65;;;;;;;20.72;94.31;94953.22;5078804;28;20034;-90
2022/10/13 10:08:53;;;;;;;23.25;12.43;;;;;;;20.46;94.90;94946.06;5095888;28;20040;-92
2022/10/13 10:11:27;;;;;;;30.25;13.02;;;;;;;20.15;95.13;94947.03;5095318;28;20106;-91
2022/10/13 10:13:56;;;;;;;29.20;13.55;;;;;;;19.99;96.61;94951.28;5095884;28;20028;-92
2022/10/13 10:16:38;;;;;;;28.10;13.30;;;;;;;19.74;99.05;94949.03;5096102;28;20343;-91
2022/10/13 10:19:21;;;;;;;28.58;13.30;;;;;;;19.27;99.35;94948.78;5095806;28;20027;-91
2022/10/13 10:22:09;;;;;;;31.08;14.07;;;;;;;19.93;98.81;94955.97;5078884;28;20041;-90
2022/10/13 10:24:50;;;;;;;23.25;12.02;;;;;;;19.95;100.00;94950.34;5095473;28;20100;-92
2022/10/13 10:27:39;;;;;;;29.98;12.68;;;;;;;20.28;95.77;94944.53;5095672;28;20431;-90
2022/10/13 10:30:14;;;;;;;29.15;12.73;;;;;;;19.68;100.00;94933.56;5095628;28;20070;-91
2022/10/13 10:32:46;;;;;;;25.90;13.13;;;;;;;19.87;100.00;94942.00;5110273;28;20419;-91
2022/10/13 10:35:16;;;;;;;33.70;13.40;;;;;;;20.04;98.27;94945.78;5096905;28;20047;-91
2022/10/13 10:38:06;;;;;;;29.20;13.55;;;;;;;20.31;90.50;94933.25;5095599;28;20479;-91
2022/10/13 10:40:38;;;;;;;25.00;12.85;;;;;;;20.30;94.02;94929.03;5114508;28;20035;-91
2022/10/13 10:43:25;;;;;;;31.30;13.82;;;;;;;20.71;86.91;94926.88;5099619;28;20413;-91
2022/10/13 10:45:50;;;;;;;25.08;12.63;;;;;;;20.99;85.99;94924.63;5099880;28;20024;-91
2022/10/13 10:48:20;;;;;;;30.05;12.25;;;;;;;20.90;81.42;94927.34;5116294;28;20028;-92
2022/10/13 10:50:46;;;;;;;22.23;11.77;;;;;;;21.00;80.76;94915.53;5116114;28;20122;-91
2022/10/13 10:53:33;;;;;;;23.95;12.48;;;;;;;21.20;76.94;94918.56;5116125;28;20082;-91
2022/10/13 10:56:16;;;;;;;26.20;13.00;;;;;;;21.09;81.60;94917.38;5099400;28;20039;-91
2022/10/13 10:59:01;;;;;;;23.52;13.55;;;;;;;20.88;79.42;94902.91;5100333;28;20059;-91
2022/10/13 11:01:38;;;;;;;25.70;12.40;;;;;;;21.02;81.85;94896.59;5099140;28;20081;-91
2022/10/13 11:04:42;;;;;;;27.13;12.82;;;;;;;20.88;74.02;94894.94;5116311;28;20036;-91
2022/10/13 11:07:34;;;;;;;27.50;13.15;;;;;;;20.56;75.12;94885.63;5100145;28;20024;-92
2022/10/13 11:10:00;;;;;;;28.02;13.18;;;;;;;20.61;79.18;94888.09;5093130;28;20062;-92
2022/10/13 11:13:05;;;;;;;24.77;11.88;;;;;;;20.81;75.01;94875.22;5100345;28;20474;-91
2022/10/13 11:15:42;;;;;;;23.42;12.23;;;;;;;20.57;78.83;94874.63;5082090;28;20028;-91
2022/10/13 11:18:52;;;;;;;23.77;11.60;;;;;;;20.83;77.44;94862.38;5098821;28;20058;-91
2022/10/13 11:21:18;;;;;;;27.55;13.00;;;;;;;20.57;71.62;94857.91;5093581;28;20344;-92
2022/10/13 11:23:47;;;;;;;25.65;12.55;;;;;;;20.63;83.00;94859.25;5098659;28;20032;-92
2022/10/13 11:26:30;;;;;;;24.42;12.32;;;;;;;20.81;77.98;94854.69;5081943;28;20509;-91